createdAt,value
2019-04-27T00:03:07.512Z,24.6
2019-04-27T00:06:13.734Z,24.6
2019-04-27T00:09:19.841Z,24.6
2019-04-27T00:12:27.897Z,24.6
2019-04-27T00:15:34.718Z,24.6
2019-04-27T00:18:43.348Z,24.5
2019-04-27T00:22:03.126Z,24.5
2019-04-27T00:25:09.462Z,24.5
2019-04-27T00:28:17.544Z,24.5
2019-04-27T00:31:23.678Z,24.5
2019-04-27T00:34:29.858Z,24.5
2019-04-27T00:37:37.772Z,24.5
2019-04-27T00:40:43.953Z,24.4
2019-04-27T00:43:50.130Z,24.4
2019-04-27T00:46:57.717Z,24.4
2019-04-27T00:50:03.895Z,24.4
2019-04-27T00:53:10.010Z,24.4
2019-04-27T00:56:17.920Z,24.4
2019-04-27T00:59:24.114Z,24.4
2019-04-27T01:02:30.300Z,24.4
2019-04-27T01:05:39.763Z,24.3
2019-04-27T01:08:47.560Z,24.3
2019-04-27T01:11:53.727Z,24.3
2019-04-27T01:14:59.924Z,24.3
2019-04-27T01:18:12.896Z,24.3
2019-04-27T01:21:22.718Z,24.3
2019-04-27T01:24:30.363Z,24.3
2019-04-27T01:27:36.951Z,24.3
2019-04-27T01:30:45.103Z,24.2
2019-04-27T01:33:52.846Z,24.2
2019-04-27T01:37:01.860Z,24.2
2019-04-27T01:40:09.647Z,24.2
2019-04-27T01:43:16.034Z,24.2
2019-04-27T01:46:23.688Z,24.2
2019-04-27T01:49:29.905Z,24.1
2019-04-27T01:52:36.072Z,24.1
2019-04-27T01:55:44.072Z,24.1
2019-04-27T01:58:52.413Z,24.1
2019-04-27T02:02:03.353Z,24.1
2019-04-27T02:05:11.235Z,24.1
2019-04-27T02:08:17.453Z,24.1
2019-04-27T02:11:25.242Z,24.1
2019-04-27T02:14:33.222Z,24
2019-04-27T02:17:39.467Z,24
2019-04-27T02:20:49.148Z,24
2019-04-27T02:23:55.494Z,24
2019-04-27T02:27:03.606Z,24
2019-04-27T02:30:11.623Z,24
2019-04-27T02:33:20.188Z,24
2019-04-27T02:36:26.643Z,24
2019-04-27T02:39:35.609Z,24
2019-04-27T02:42:44.272Z,24
2019-04-27T02:45:53.791Z,23.9
2019-04-27T02:49:05.989Z,23.9
2019-04-27T02:52:15.631Z,23.9
2019-04-27T02:55:24.345Z,23.9
2019-04-27T02:58:33.259Z,23.9
2019-04-27T03:01:45.762Z,23.9
2019-04-27T03:05:00.546Z,23.9
2019-04-27T03:08:09.778Z,23.9
2019-04-27T03:11:16.427Z,23.8
2019-04-27T03:12:09.808Z,23.7
2019-04-27T03:15:16.395Z,23.9
2019-04-27T03:18:29.694Z,23.8
2019-04-27T03:21:41.092Z,23.8
2019-04-27T03:24:49.467Z,23.8
2019-04-27T03:27:56.163Z,23.8
2019-04-27T03:31:06.767Z,23.8
2019-04-27T03:34:23.287Z,23.8
2019-04-27T03:37:30.277Z,23.8
2019-04-27T03:40:36.628Z,23.8
2019-04-27T03:43:45.293Z,23.8
2019-04-27T03:46:54.113Z,23.8
2019-04-27T03:50:02.743Z,23.8
2019-04-27T03:53:10.284Z,23.8
2019-04-27T03:56:16.722Z,23.8
2019-04-27T03:59:25.107Z,23.8
2019-04-27T04:02:35.926Z,23.9
2019-04-27T04:05:44.779Z,23.9
2019-04-27T04:08:54.964Z,23.9
2019-04-27T04:12:04.080Z,24
2019-04-27T04:15:12.877Z,24.1
2019-04-27T04:18:19.605Z,24.2
2019-04-27T04:21:25.980Z,24.3
2019-04-27T04:24:34.995Z,24.4
2019-04-27T04:27:43.572Z,24.5
2019-04-27T04:30:50.307Z,24.5
2019-04-27T04:33:56.466Z,24.5
2019-04-27T04:37:05.289Z,24.5
2019-04-27T04:40:13.777Z,24.5
2019-04-27T04:43:20.166Z,24.5
2019-04-27T04:46:26.347Z,24.5
2019-04-27T04:49:35.561Z,24.6
2019-04-27T04:52:44.073Z,24.6
2019-04-27T04:55:50.361Z,24.5
2019-04-27T04:58:56.537Z,24.5
2019-04-27T05:02:05.101Z,24.6
2019-04-27T05:05:11.333Z,24.6
2019-04-27T05:08:19.018Z,24.6
2019-04-27T05:11:25.516Z,24.7
2019-04-27T05:14:33.559Z,24.7
2019-04-27T05:17:39.976Z,24.7
2019-04-27T05:20:46.185Z,24.7
2019-04-27T05:23:54.195Z,24.8
2019-04-27T05:27:00.472Z,24.8
2019-04-27T05:30:06.855Z,24.8
2019-04-27T05:33:14.937Z,24.9
2019-04-27T05:36:23.226Z,24.9
2019-04-27T05:39:29.920Z,24.9
2019-04-27T05:42:36.424Z,25
2019-04-27T05:45:44.388Z,25
2019-04-27T05:48:52.087Z,25
2019-04-27T05:51:59.385Z,25.1
2019-04-27T05:55:05.736Z,25.1
2019-04-27T05:58:14.508Z,25.2
2019-04-27T06:01:20.974Z,25.2
2019-04-27T06:04:28.898Z,25.2
2019-04-27T06:07:35.274Z,25.2
2019-04-27T06:10:43.453Z,25.3
2019-04-27T06:13:49.641Z,25.3
2019-04-27T06:16:55.921Z,25.3
2019-04-27T06:20:04.117Z,25.3
2019-04-27T06:23:10.617Z,25.4
2019-04-27T06:26:16.798Z,25.4
2019-04-27T06:29:25.250Z,25.4
2019-04-27T06:32:33.223Z,25.4
2019-04-27T06:35:42.244Z,25.5
2019-04-27T06:38:48.612Z,25.5
2019-04-27T06:41:54.932Z,25.5
2019-04-27T06:45:05.095Z,25.6
2019-04-27T06:48:13.165Z,25.6
2019-04-27T06:51:19.615Z,25.6
2019-04-27T06:54:25.935Z,25.7
2019-04-27T06:57:34.011Z,25.7
2019-04-27T07:00:40.163Z,25.7
2019-04-27T07:03:46.378Z,25.8
2019-04-27T07:06:56.171Z,25.8
2019-04-27T07:10:06.480Z,25.8
2019-04-27T07:13:14.351Z,25.9
2019-04-27T07:16:20.643Z,25.9
2019-04-27T07:19:28.422Z,25.9
2019-04-27T07:22:34.829Z,26
2019-04-27T07:25:42.806Z,26
2019-04-27T07:28:49.300Z,26
2019-04-27T07:31:55.705Z,26
2019-04-27T07:35:04.028Z,26
2019-04-27T07:38:10.239Z,26
2019-04-27T07:41:16.418Z,26
2019-04-27T07:44:27.179Z,26.1
2019-04-27T07:47:34.904Z,26.1
2019-04-27T07:50:42.731Z,26.1
2019-04-27T07:53:48.991Z,26.1
2019-04-27T07:56:55.204Z,26.1
2019-04-27T08:00:03.222Z,26.2
2019-04-27T08:03:10.003Z,26.2
2019-04-27T08:06:16.444Z,26.2
2019-04-27T08:09:24.722Z,26.2
2019-04-27T08:12:32.778Z,26.2
2019-04-27T08:15:39.574Z,26.2
2019-04-27T08:18:45.958Z,26.2
2019-04-27T08:21:55.646Z,26.2
2019-04-27T08:25:03.839Z,26.2
2019-04-27T08:28:10.369Z,26.2
2019-04-27T08:31:18.601Z,26.2
2019-04-27T08:34:24.881Z,26.2
2019-04-27T08:37:32.754Z,26.3
2019-04-27T08:40:39.395Z,26.3
2019-04-27T08:43:45.756Z,26.3
2019-04-27T08:46:53.958Z,26.3
2019-04-27T08:50:00.228Z,26.3
2019-04-27T08:53:06.406Z,26.3
2019-04-27T08:56:14.365Z,26.3
2019-04-27T08:59:24.546Z,26.3
2019-04-27T09:02:41.385Z,26.3
2019-04-27T09:05:55.271Z,26.3
2019-04-27T09:09:04.667Z,26.3
2019-04-27T09:12:12.811Z,26.3
2019-04-27T09:15:19.268Z,26.3
2019-04-27T09:18:25.480Z,26.3
2019-04-27T09:21:36.265Z,26.4
2019-04-27T09:24:44.065Z,26.4
2019-04-27T09:27:50.182Z,26.4
2019-04-27T09:30:56.449Z,26.4
2019-04-27T09:34:05.617Z,26.4
2019-04-27T09:37:21.588Z,26.4
2019-04-27T09:40:27.783Z,26.4
2019-04-27T09:43:33.893Z,26.4
2019-04-27T09:46:41.849Z,26.4
2019-04-27T09:49:47.961Z,26.4
2019-04-27T09:52:55.689Z,26.4
2019-04-27T09:56:02.077Z,26.4
2019-04-27T09:59:10.150Z,26.4
2019-04-27T10:02:19.495Z,26.4
2019-04-27T10:05:26.207Z,26.4
2019-04-27T10:08:32.690Z,26.4
2019-04-27T10:11:40.577Z,26.4
2019-04-27T10:14:47.608Z,26.4
2019-04-27T10:17:55.916Z,26.5
2019-04-27T10:21:03.690Z,26.5
2019-04-27T10:24:11.958Z,26.5
2019-04-27T10:27:20.046Z,26.5
2019-04-27T10:30:26.244Z,26.5
2019-04-27T10:33:32.430Z,26.5
2019-04-27T10:36:40.362Z,26.5
2019-04-27T10:39:46.629Z,26.5
2019-04-27T10:42:52.894Z,26.5
2019-04-27T10:46:01.155Z,26.5
2019-04-27T10:49:07.341Z,26.6
2019-04-27T10:52:13.558Z,26.6
2019-04-27T10:55:19.769Z,26.6
2019-04-27T10:58:27.275Z,26.6
2019-04-27T11:01:33.665Z,26.6
2019-04-27T11:04:41.557Z,26.6
2019-04-27T11:07:49.492Z,26.6
2019-04-27T11:10:56.377Z,26.6
2019-04-27T11:14:02.785Z,26.6
2019-04-27T11:17:10.825Z,26.6
2019-04-27T11:20:17.125Z,26.6
2019-04-27T11:23:23.311Z,26.6
2019-04-27T11:26:31.273Z,26.7
2019-04-27T11:29:37.442Z,26.7
2019-04-27T11:32:43.600Z,26.7
2019-04-27T11:35:49.815Z,26.7
2019-04-27T11:38:56.502Z,26.7
2019-04-27T11:42:02.815Z,26.7
2019-04-27T11:45:09.042Z,26.7
2019-04-27T11:48:16.113Z,26.7
2019-04-27T11:51:22.476Z,26.7
2019-04-27T11:54:30.497Z,26.7
2019-04-27T11:57:37.618Z,26.7
2019-04-27T12:00:43.937Z,26.8
2019-04-27T12:03:50.144Z,26.8
2019-04-27T12:06:56.529Z,26.8
2019-04-27T12:10:02.787Z,26.8
2019-04-27T12:13:10.853Z,26.8
2019-04-27T12:16:19.089Z,26.8
2019-04-27T12:19:26.790Z,26.8
2019-04-27T12:22:33.174Z,26.8
2019-04-27T12:25:39.364Z,26.8
2019-04-27T12:28:45.983Z,26.8
2019-04-27T12:31:52.248Z,26.8
2019-04-27T12:35:00.145Z,26.8
2019-04-27T12:38:06.396Z,26.8
2019-04-27T12:41:12.546Z,26.8
2019-04-27T12:44:18.697Z,26.7
2019-04-27T12:47:26.283Z,26.7
2019-04-27T12:50:32.555Z,26.7
2019-04-27T12:53:50.507Z,26.7
2019-04-27T12:57:00.272Z,26.7
2019-04-27T13:00:06.638Z,26.7
2019-04-27T13:03:12.922Z,26.7
2019-04-27T13:06:21.155Z,26.7
2019-04-27T13:09:27.314Z,26.8
2019-04-27T13:12:33.604Z,26.8
2019-04-27T13:15:41.496Z,26.8
2019-04-27T13:18:49.260Z,26.7
2019-04-27T13:21:55.931Z,26.7
2019-04-27T13:25:02.200Z,26.7
2019-04-27T13:28:10.120Z,26.7
2019-04-27T13:31:16.325Z,26.7
2019-04-27T13:34:22.513Z,26.6
2019-04-27T13:37:28.686Z,26.6
2019-04-27T13:40:35.657Z,26.6
2019-04-27T13:43:41.900Z,26.6
2019-04-27T13:46:48.061Z,26.6
2019-04-27T13:49:56.145Z,26.6
2019-04-27T13:53:02.478Z,26.5
2019-04-27T13:56:12.325Z,26.5
2019-04-27T13:59:18.579Z,26.5
2019-04-27T14:02:30.216Z,26.5
2019-04-27T14:05:40.312Z,26.5
2019-04-27T14:08:46.554Z,26.5
2019-04-27T14:11:52.821Z,26.5
2019-04-27T14:14:59.179Z,26.5
2019-04-27T14:18:05.513Z,26.5
2019-04-27T14:21:13.526Z,26.5
2019-04-27T14:24:27.699Z,26.4
2019-04-27T14:27:40.610Z,26.4
2019-04-27T14:30:48.627Z,26.4
2019-04-27T14:33:55.092Z,26.4
2019-04-27T14:37:03.170Z,26.4
2019-04-27T14:40:09.387Z,26.4
2019-04-27T14:43:15.559Z,26.4
2019-04-27T14:46:23.390Z,26.4
2019-04-27T14:49:32.966Z,26.3
2019-04-27T14:52:40.886Z,26.3
2019-04-27T14:55:48.772Z,26.3
2019-04-27T14:58:55.111Z,26.3
2019-04-27T15:02:03.135Z,26.3
2019-04-27T15:05:09.367Z,26.3
2019-04-27T15:08:15.689Z,26.2
2019-04-27T15:11:21.859Z,26.2
2019-04-27T15:14:31.037Z,26.2
2019-04-27T15:17:37.373Z,26.2
2019-04-27T15:20:46.490Z,26.2
2019-04-27T15:23:54.916Z,26.2
2019-04-27T15:27:16.187Z,26.2
2019-04-27T15:30:25.195Z,26.2
2019-04-27T15:33:31.867Z,26.2
2019-04-27T15:36:38.090Z,26.1
2019-04-27T15:39:44.315Z,26.1
2019-04-27T15:42:54.122Z,26.1
2019-04-27T15:46:01.972Z,26.1
2019-04-27T15:49:11.224Z,26
2019-04-27T15:52:17.994Z,26
2019-04-27T15:55:32.861Z,26
2019-04-27T15:58:44.839Z,26
2019-04-27T16:01:52.740Z,26
2019-04-27T16:05:01.807Z,26
2019-04-27T16:08:12.915Z,26
2019-04-27T16:11:23.769Z,25.9
2019-04-27T16:14:29.913Z,25.9
2019-04-27T16:17:42.989Z,25.9
2019-04-27T16:21:07.022Z,25.9
2019-04-27T16:24:16.881Z,25.9
2019-04-27T16:27:31.205Z,25.8
2019-04-27T16:30:45.560Z,25.8
2019-04-27T16:34:02.689Z,25.8
2019-04-27T16:37:09.743Z,25.8
2019-04-27T16:40:27.052Z,25.7
2019-04-27T16:43:35.684Z,25.7
2019-04-27T16:46:43.609Z,25.7
2019-04-27T16:49:49.814Z,25.6
2019-04-27T16:53:00.829Z,25.6
2019-04-27T16:56:14.112Z,25.6
2019-04-27T17:01:25.721Z,25.6
2019-04-27T17:04:35.753Z,25.6
2019-04-27T17:07:43.843Z,25.6
2019-04-27T17:10:50.037Z,25.5
2019-04-27T17:14:15.951Z,25.5
2019-04-27T17:17:42.678Z,25.5
2019-04-27T17:20:57.332Z,25.5
2019-04-27T17:24:30.967Z,25.5
2019-04-27T17:27:57.688Z,25.5
2019-04-27T17:31:12.832Z,25.5
2019-04-27T17:34:26.856Z,25.4
2019-04-27T17:37:34.425Z,25.4
2019-04-27T17:40:42.314Z,25.4
2019-04-27T17:43:48.515Z,25.4
2019-04-27T17:46:54.733Z,25.4
2019-04-27T17:50:00.912Z,25.4
2019-04-27T17:53:08.052Z,25.4
2019-04-27T17:56:14.254Z,25.4
2019-04-27T17:59:22.341Z,25.4
2019-04-27T18:02:29.302Z,25.3
2019-04-27T18:05:49.030Z,25.3
2019-04-27T18:09:00.368Z,25.3
2019-04-27T18:12:14.512Z,25.3
2019-04-27T18:15:23.876Z,25.3
2019-04-27T18:18:30.079Z,25.3
2019-04-27T18:21:36.245Z,25.3
2019-04-27T18:24:44.272Z,25.3
2019-04-27T18:27:50.431Z,25.3
2019-04-27T18:30:56.545Z,25.3
2019-04-27T18:34:02.813Z,25.2
2019-04-27T18:37:24.804Z,25.2
2019-04-27T18:40:33.529Z,25.2
2019-04-27T18:43:50.450Z,25.2
2019-04-27T18:47:04.886Z,25.2
2019-04-27T18:50:14.590Z,25.2
2019-04-27T18:53:24.288Z,25.2
2019-04-27T18:56:33.276Z,25.2
2019-04-27T18:59:48.229Z,25.1
2019-04-27T19:02:54.601Z,25.1
2019-04-27T19:06:02.888Z,25.1
2019-04-27T19:09:09.193Z,25.1
2019-04-27T19:12:15.368Z,25.1
2019-04-27T19:15:28.527Z,25.1
2019-04-27T19:18:34.935Z,25.1
2019-04-27T19:21:44.319Z,25.1
2019-04-27T19:24:52.604Z,25.1
2019-04-27T19:27:58.825Z,25.1
2019-04-27T19:31:05.061Z,25.1
2019-04-27T19:34:13.451Z,25
2019-04-27T19:37:21.398Z,25
2019-04-27T19:40:32.507Z,25
2019-04-27T19:43:38.687Z,25
2019-04-27T19:46:44.884Z,25
2019-04-27T19:49:53.061Z,25
2019-04-27T19:52:59.403Z,25
2019-04-27T19:56:05.611Z,25
2019-04-27T19:59:11.837Z,25
2019-04-27T20:02:18.463Z,25
2019-04-27T20:05:26.404Z,25
2019-04-27T20:08:34.605Z,24.9
2019-04-27T20:11:42.496Z,24.9
2019-04-27T20:14:48.667Z,24.9
2019-04-27T20:17:56.367Z,24.9
2019-04-27T20:21:04.175Z,24.9
2019-04-27T20:24:11.766Z,24.9
2019-04-27T20:27:18.088Z,24.9
2019-04-27T20:30:26.227Z,24.9
2019-04-27T20:33:32.500Z,24.9
2019-04-27T20:36:38.813Z,24.9
2019-04-27T20:39:46.623Z,24.8
2019-04-27T20:42:54.606Z,24.8
2019-04-27T20:46:00.965Z,24.8
2019-04-27T20:49:07.312Z,24.8
2019-04-27T20:52:13.482Z,24.8
2019-04-27T20:55:21.347Z,24.8
2019-04-27T20:58:27.712Z,24.8
2019-04-27T21:01:35.538Z,24.8
2019-04-27T21:04:41.981Z,24.8
2019-04-27T21:07:48.239Z,24.8
2019-04-27T21:10:57.890Z,24.7
2019-04-27T21:14:06.141Z,24.7
2019-04-27T21:17:14.393Z,24.7
2019-04-27T21:20:23.806Z,24.7
2019-04-27T21:23:31.169Z,24.7
2019-04-27T21:26:37.516Z,24.7
2019-04-27T21:29:45.969Z,24.7
2019-04-27T21:32:52.813Z,24.7
2019-04-27T21:35:59.125Z,24.7
2019-04-27T21:39:07.091Z,24.7
2019-04-27T21:42:14.947Z,24.7
2019-04-27T21:45:21.784Z,24.7
2019-04-27T21:48:27.995Z,24.6
2019-04-27T21:51:35.777Z,24.6
2019-04-27T21:54:45.429Z,24.6
2019-04-27T21:57:54.548Z,24.6
2019-04-27T22:01:00.823Z,24.6
2019-04-27T22:04:07.005Z,24.6
2019-04-27T22:07:13.299Z,24.6
2019-04-27T22:10:20.903Z,24.6
2019-04-27T22:13:27.117Z,24.6
2019-04-27T22:16:35.157Z,24.6
2019-04-27T22:19:41.460Z,24.5
2019-04-27T22:22:47.725Z,24.5
2019-04-27T22:25:55.591Z,24.5
2019-04-27T22:29:01.820Z,24.5
2019-04-27T22:32:08.041Z,24.6
2019-04-27T22:35:14.283Z,24.5
2019-04-27T22:38:23.064Z,24.5
2019-04-27T22:41:31.245Z,24.5
2019-04-27T22:44:37.739Z,24.5
2019-04-27T22:47:43.906Z,24.5
2019-04-27T22:50:51.435Z,24.5
2019-04-27T22:53:57.639Z,24.5
2019-04-27T22:57:05.772Z,24.5
2019-04-27T23:00:11.956Z,24.5
2019-04-27T23:03:18.234Z,24.5
2019-04-27T23:06:26.336Z,24.5
2019-04-27T23:09:32.442Z,24.5
2019-04-27T23:12:38.623Z,24.5
2019-04-27T23:15:46.923Z,24.5
2019-04-27T23:18:55.123Z,24.5
2019-04-27T23:22:01.355Z,24.4
2019-04-27T23:25:11.229Z,24.5
2019-04-27T23:28:17.518Z,24.4
2019-04-27T23:31:25.528Z,24.4
2019-04-27T23:34:31.695Z,24.4
2019-04-27T23:37:37.915Z,24.4
2019-04-27T23:40:44.121Z,24.4
2019-04-27T23:43:50.279Z,24.4
2019-04-27T23:46:56.559Z,24.4
2019-04-27T23:50:02.759Z,24.4
2019-04-27T23:53:08.943Z,24.4
2019-04-27T23:56:16.948Z,24.4
2019-04-27T23:59:25.400Z,24.4
